sensor_id;sensor_type;location;lat;lon;timestamp;temperature;humidity
75824;DHT22;64457;51.976;9.834;2023-04-07T00:02:11;8.10;65.70
75824;DHT22;64457;51.976;9.834;2023-04-07T00:04:39;8.00;66.10
75824;DHT22;64457;51.976;9.834;2023-04-07T00:07:06;8.00;66.20
75824;DHT22;64457;51.976;9.834;2023-04-07T00:09:34;8.20;66.00
75824;DHT22;64457;51.976;9.834;2023-04-07T00:12:01;8.10;65.70
75824;DHT22;64457;51.976;9.834;2023-04-07T00:14:30;8.10;65.80
75824;DHT22;64457;51.976;9.834;2023-04-07T00:17:01;8.10;66.40
75824;DHT22;64457;51.976;9.834;2023-04-07T00:19:28;8.00;66.80
75824;DHT22;64457;51.976;9.834;2023-04-07T00:21:58;8.00;67.20
75824;DHT22;64457;51.976;9.834;2023-04-07T00:24:26;8.00;67.60
75824;DHT22;64457;51.976;9.834;2023-04-07T00:27:04;7.90;67.40
75824;DHT22;64457;51.976;9.834;2023-04-07T00:29:32;7.80;67.60
75824;DHT22;64457;51.976;9.834;2023-04-07T00:32:13;7.90;68.90
75824;DHT22;64457;51.976;9.834;2023-04-07T00:34:41;7.80;67.30
75824;DHT22;64457;51.976;9.834;2023-04-07T00:37:09;7.70;67.70
75824;DHT22;64457;51.976;9.834;2023-04-07T00:39:37;7.80;68.10
75824;DHT22;64457;51.976;9.834;2023-04-07T00:42:06;7.80;68.40
75824;DHT22;64457;51.976;9.834;2023-04-07T00:44:33;7.80;68.00
75824;DHT22;64457;51.976;9.834;2023-04-07T00:47:06;7.50;68.40
75824;DHT22;64457;51.976;9.834;2023-04-07T00:49:36;7.30;69.70
75824;DHT22;64457;51.976;9.834;2023-04-07T00:52:05;7.30;69.10
75824;DHT22;64457;51.976;9.834;2023-04-07T00:54:37;7.20;69.00
75824;DHT22;64457;51.976;9.834;2023-04-07T00:57:13;7.30;68.60
75824;DHT22;64457;51.976;9.834;2023-04-07T00:59:41;7.40;69.50
75824;DHT22;64457;51.976;9.834;2023-04-07T01:02:12;7.50;68.80
75824;DHT22;64457;51.976;9.834;2023-04-07T01:04:48;7.30;69.10
75824;DHT22;64457;51.976;9.834;2023-04-07T01:07:30;7.30;68.90
75824;DHT22;64457;51.976;9.834;2023-04-07T01:10:04;7.40;69.20
75824;DHT22;64457;51.976;9.834;2023-04-07T01:12:38;7.30;68.90
75824;DHT22;64457;51.976;9.834;2023-04-07T01:15:14;7.20;69.10
75824;DHT22;64457;51.976;9.834;2023-04-07T01:17:44;7.10;69.30
75824;DHT22;64457;51.976;9.834;2023-04-07T01:20:22;7.10;70.30
75824;DHT22;64457;51.976;9.834;2023-04-07T01:22:54;7.00;69.60
75824;DHT22;64457;51.976;9.834;2023-04-07T01:25:34;7.00;69.80
75824;DHT22;64457;51.976;9.834;2023-04-07T01:28:19;6.90;70.70
75824;DHT22;64457;51.976;9.834;2023-04-07T01:31:00;6.70;70.00
75824;DHT22;64457;51.976;9.834;2023-04-07T01:33:30;6.50;70.90
75824;DHT22;64457;51.976;9.834;2023-04-07T01:36:00;6.50;71.50
75824;DHT22;64457;51.976;9.834;2023-04-07T01:38:30;6.50;71.50
75824;DHT22;64457;51.976;9.834;2023-04-07T01:41:01;6.70;70.70
75824;DHT22;64457;51.976;9.834;2023-04-07T01:43:34;6.80;71.10
75824;DHT22;64457;51.976;9.834;2023-04-07T01:46:04;6.70;70.70
75824;DHT22;64457;51.976;9.834;2023-04-07T01:48:33;6.50;71.20
75824;DHT22;64457;51.976;9.834;2023-04-07T01:51:03;6.60;71.60
75824;DHT22;64457;51.976;9.834;2023-04-07T01:53:42;6.50;70.90
75824;DHT22;64457;51.976;9.834;2023-04-07T01:56:10;6.50;71.00
75824;DHT22;64457;51.976;9.834;2023-04-07T01:58:38;6.60;71.20
75824;DHT22;64457;51.976;9.834;2023-04-07T02:01:07;6.50;71.00
75824;DHT22;64457;51.976;9.834;2023-04-07T02:03:39;6.50;71.20
75824;DHT22;64457;51.976;9.834;2023-04-07T02:06:12;6.50;71.30
75824;DHT22;64457;51.976;9.834;2023-04-07T02:08:50;6.50;71.20
75824;DHT22;64457;51.976;9.834;2023-04-07T02:11:21;6.70;70.70
75824;DHT22;64457;51.976;9.834;2023-04-07T02:13:53;6.80;70.20
75824;DHT22;64457;51.976;9.834;2023-04-07T02:16:24;6.70;69.90
75824;DHT22;64457;51.976;9.834;2023-04-07T02:18:52;6.70;70.20
75824;DHT22;64457;51.976;9.834;2023-04-07T02:21:20;6.80;70.40
75824;DHT22;64457;51.976;9.834;2023-04-07T02:23:48;6.80;69.60
75824;DHT22;64457;51.976;9.834;2023-04-07T02:26:16;6.70;70.10
75824;DHT22;64457;51.976;9.834;2023-04-07T02:28:43;6.50;70.60
75824;DHT22;64457;51.976;9.834;2023-04-07T02:31:11;6.50;70.80
75824;DHT22;64457;51.976;9.834;2023-04-07T02:33:40;6.50;70.90
75824;DHT22;64457;51.976;9.834;2023-04-07T02:36:08;6.50;70.80
75824;DHT22;64457;51.976;9.834;2023-04-07T02:38:36;6.60;70.50
75824;DHT22;64457;51.976;9.834;2023-04-07T02:41:04;6.60;70.00
75824;DHT22;64457;51.976;9.834;2023-04-07T02:43:32;6.60;70.10
75824;DHT22;64457;51.976;9.834;2023-04-07T02:46:00;6.70;70.00
75824;DHT22;64457;51.976;9.834;2023-04-07T02:48:34;6.70;69.70
75824;DHT22;64457;51.976;9.834;2023-04-07T02:51:03;6.80;70.60
75824;DHT22;64457;51.976;9.834;2023-04-07T02:53:32;6.80;70.10
75824;DHT22;64457;51.976;9.834;2023-04-07T02:56:00;6.70;69.50
75824;DHT22;64457;51.976;9.834;2023-04-07T02:58:28;6.60;69.80
75824;DHT22;64457;51.976;9.834;2023-04-07T03:00:55;6.60;70.00
75824;DHT22;64457;51.976;9.834;2023-04-07T03:03:23;6.70;69.90
75824;DHT22;64457;51.976;9.834;2023-04-07T03:05:51;6.70;69.90
75824;DHT22;64457;51.976;9.834;2023-04-07T03:08:20;6.70;69.80
75824;DHT22;64457;51.976;9.834;2023-04-07T03:10:48;6.70;69.80
75824;DHT22;64457;51.976;9.834;2023-04-07T03:13:15;6.70;69.70
75824;DHT22;64457;51.976;9.834;2023-04-07T03:15:44;6.60;70.20
75824;DHT22;64457;51.976;9.834;2023-04-07T03:18:12;6.60;70.40
75824;DHT22;64457;51.976;9.834;2023-04-07T03:20:41;6.50;70.60
75824;DHT22;64457;51.976;9.834;2023-04-07T03:23:09;6.50;70.70
75824;DHT22;64457;51.976;9.834;2023-04-07T03:25:39;6.60;70.40
75824;DHT22;64457;51.976;9.834;2023-04-07T03:28:07;6.60;70.80
75824;DHT22;64457;51.976;9.834;2023-04-07T03:30:36;6.60;71.40
75824;DHT22;64457;51.976;9.834;2023-04-07T03:33:03;6.60;70.80
75824;DHT22;64457;51.976;9.834;2023-04-07T03:35:31;6.50;70.60
75824;DHT22;64457;51.976;9.834;2023-04-07T03:37:59;6.40;70.60
75824;DHT22;64457;51.976;9.834;2023-04-07T03:40:27;6.40;71.20
75824;DHT22;64457;51.976;9.834;2023-04-07T03:42:57;6.50;71.50
75824;DHT22;64457;51.976;9.834;2023-04-07T03:45:28;6.50;71.30
75824;DHT22;64457;51.976;9.834;2023-04-07T03:47:56;6.50;71.50
75824;DHT22;64457;51.976;9.834;2023-04-07T03:50:24;6.30;71.60
75824;DHT22;64457;51.976;9.834;2023-04-07T03:52:52;6.20;71.00
75824;DHT22;64457;51.976;9.834;2023-04-07T03:55:21;6.20;71.00
75824;DHT22;64457;51.976;9.834;2023-04-07T03:58:04;6.20;70.90
75824;DHT22;64457;51.976;9.834;2023-04-07T04:00:32;6.00;71.20
75824;DHT22;64457;51.976;9.834;2023-04-07T04:02:59;6.00;71.70
75824;DHT22;64457;51.976;9.834;2023-04-07T04:05:27;6.10;71.80
75824;DHT22;64457;51.976;9.834;2023-04-07T04:07:55;6.10;71.60
75824;DHT22;64457;51.976;9.834;2023-04-07T04:10:23;6.20;71.40
75824;DHT22;64457;51.976;9.834;2023-04-07T04:12:50;6.20;71.50
75824;DHT22;64457;51.976;9.834;2023-04-07T04:15:21;6.10;71.30
75824;DHT22;64457;51.976;9.834;2023-04-07T04:17:48;5.90;71.90
75824;DHT22;64457;51.976;9.834;2023-04-07T04:20:17;5.80;72.10
75824;DHT22;64457;51.976;9.834;2023-04-07T04:22:46;5.70;72.90
75824;DHT22;64457;51.976;9.834;2023-04-07T04:25:15;5.60;73.20
75824;DHT22;64457;51.976;9.834;2023-04-07T04:27:43;5.60;73.10
75824;DHT22;64457;51.976;9.834;2023-04-07T04:30:11;5.70;73.00
75824;DHT22;64457;51.976;9.834;2023-04-07T04:32:40;5.70;73.10
75824;DHT22;64457;51.976;9.834;2023-04-07T04:35:10;5.80;73.40
75824;DHT22;64457;51.976;9.834;2023-04-07T04:37:38;5.80;72.80
75824;DHT22;64457;51.976;9.834;2023-04-07T04:40:06;5.80;73.10
75824;DHT22;64457;51.976;9.834;2023-04-07T04:42:36;5.70;73.40
75824;DHT22;64457;51.976;9.834;2023-04-07T04:45:04;5.60;73.20
75824;DHT22;64457;51.976;9.834;2023-04-07T04:47:33;5.50;73.90
75824;DHT22;64457;51.976;9.834;2023-04-07T04:50:06;5.40;74.80
75824;DHT22;64457;51.976;9.834;2023-04-07T04:52:34;5.30;74.30
75824;DHT22;64457;51.976;9.834;2023-04-07T04:55:03;5.40;74.60
75824;DHT22;64457;51.976;9.834;2023-04-07T04:57:31;5.30;74.80
75824;DHT22;64457;51.976;9.834;2023-04-07T05:00:01;5.40;74.90
75824;DHT22;64457;51.976;9.834;2023-04-07T05:02:29;5.60;74.30
75824;DHT22;64457;51.976;9.834;2023-04-07T05:04:57;5.60;73.90
75824;DHT22;64457;51.976;9.834;2023-04-07T05:07:27;5.80;73.80
75824;DHT22;64457;51.976;9.834;2023-04-07T05:09:56;5.80;73.10
75824;DHT22;64457;51.976;9.834;2023-04-07T05:12:24;6.00;73.50
75824;DHT22;64457;51.976;9.834;2023-04-07T05:14:52;6.00;72.70
75824;DHT22;64457;51.976;9.834;2023-04-07T05:17:26;6.10;73.10
75824;DHT22;64457;51.976;9.834;2023-04-07T05:19:55;6.10;73.70
75824;DHT22;64457;51.976;9.834;2023-04-07T05:22:23;6.20;72.90
75824;DHT22;64457;51.976;9.834;2023-04-07T05:24:53;6.10;73.10
75824;DHT22;64457;51.976;9.834;2023-04-07T05:27:21;6.10;73.30
75824;DHT22;64457;51.976;9.834;2023-04-07T05:29:49;6.10;72.00
75824;DHT22;64457;51.976;9.834;2023-04-07T05:32:18;6.00;71.60
75824;DHT22;64457;51.976;9.834;2023-04-07T05:34:45;6.00;72.10
75824;DHT22;64457;51.976;9.834;2023-04-07T05:37:13;6.00;72.50
75824;DHT22;64457;51.976;9.834;2023-04-07T05:39:41;6.10;72.90
75824;DHT22;64457;51.976;9.834;2023-04-07T05:42:11;6.10;72.10
75824;DHT22;64457;51.976;9.834;2023-04-07T05:44:38;6.10;73.10
75824;DHT22;64457;51.976;9.834;2023-04-07T05:47:06;6.10;73.60
75824;DHT22;64457;51.976;9.834;2023-04-07T05:49:36;6.20;73.90
75824;DHT22;64457;51.976;9.834;2023-04-07T05:52:10;6.30;74.20
75824;DHT22;64457;51.976;9.834;2023-04-07T05:54:38;6.40;73.40
75824;DHT22;64457;51.976;9.834;2023-04-07T05:57:06;6.40;73.60
75824;DHT22;64457;51.976;9.834;2023-04-07T05:59:36;6.40;72.80
75824;DHT22;64457;51.976;9.834;2023-04-07T06:02:04;6.50;72.80
75824;DHT22;64457;51.976;9.834;2023-04-07T06:04:32;6.50;71.80
75824;DHT22;64457;51.976;9.834;2023-04-07T06:07:00;6.70;71.60
75824;DHT22;64457;51.976;9.834;2023-04-07T06:09:27;6.80;72.30
75824;DHT22;64457;51.976;9.834;2023-04-07T06:11:56;7.20;73.10
75824;DHT22;64457;51.976;9.834;2023-04-07T06:14:24;8.10;72.50
75824;DHT22;64457;51.976;9.834;2023-04-07T06:16:53;9.30;69.10
75824;DHT22;64457;51.976;9.834;2023-04-07T06:19:21;10.70;65.00
75824;DHT22;64457;51.976;9.834;2023-04-07T06:21:49;12.10;62.40
75824;DHT22;64457;51.976;9.834;2023-04-07T06:24:16;13.90;58.60
75824;DHT22;64457;51.976;9.834;2023-04-07T06:26:44;15.00;56.20
75824;DHT22;64457;51.976;9.834;2023-04-07T06:29:12;15.70;55.00
75824;DHT22;64457;51.976;9.834;2023-04-07T06:31:40;16.60;53.80
75824;DHT22;64457;51.976;9.834;2023-04-07T06:34:09;16.80;51.90
75824;DHT22;64457;51.976;9.834;2023-04-07T06:36:36;16.90;51.60
75824;DHT22;64457;51.976;9.834;2023-04-07T06:39:04;17.10;51.50
75824;DHT22;64457;51.976;9.834;2023-04-07T06:41:32;17.00;51.40
75824;DHT22;64457;51.976;9.834;2023-04-07T06:44:00;16.90;50.90
75824;DHT22;64457;51.976;9.834;2023-04-07T06:46:29;16.60;51.20
75824;DHT22;64457;51.976;9.834;2023-04-07T06:48:56;16.40;50.90
75824;DHT22;64457;51.976;9.834;2023-04-07T06:51:26;16.60;49.40
75824;DHT22;64457;51.976;9.834;2023-04-07T06:53:53;16.90;49.90
75824;DHT22;64457;51.976;9.834;2023-04-07T06:56:21;17.50;48.60
75824;DHT22;64457;51.976;9.834;2023-04-07T06:58:49;18.30;47.80
75824;DHT22;64457;51.976;9.834;2023-04-07T07:01:17;19.10;47.00
75824;DHT22;64457;51.976;9.834;2023-04-07T07:03:45;20.00;46.20
75824;DHT22;64457;51.976;9.834;2023-04-07T07:06:13;20.90;45.40
75824;DHT22;64457;51.976;9.834;2023-04-07T07:08:42;19.90;41.40
75824;DHT22;64457;51.976;9.834;2023-04-07T07:11:10;17.80;44.20
75824;DHT22;64457;51.976;9.834;2023-04-07T07:13:37;16.50;46.10
75824;DHT22;64457;51.976;9.834;2023-04-07T07:16:05;16.20;48.90
75824;DHT22;64457;51.976;9.834;2023-04-07T07:18:33;16.10;48.20
75824;DHT22;64457;51.976;9.834;2023-04-07T07:21:01;16.00;47.90
75824;DHT22;64457;51.976;9.834;2023-04-07T07:23:29;15.10;48.80
75824;DHT22;64457;51.976;9.834;2023-04-07T07:25:58;14.90;49.70
75824;DHT22;64457;51.976;9.834;2023-04-07T07:28:26;15.30;49.70
75824;DHT22;64457;51.976;9.834;2023-04-07T07:30:53;15.10;49.40
75824;DHT22;64457;51.976;9.834;2023-04-07T07:33:22;15.00;49.80
75824;DHT22;64457;51.976;9.834;2023-04-07T07:35:49;14.70;51.20
75824;DHT22;64457;51.976;9.834;2023-04-07T07:38:19;15.50;51.80
75824;DHT22;64457;51.976;9.834;2023-04-07T07:40:46;15.90;49.20
75824;DHT22;64457;51.976;9.834;2023-04-07T07:43:16;15.60;49.40
75824;DHT22;64457;51.976;9.834;2023-04-07T07:45:44;15.50;50.70
75824;DHT22;64457;51.976;9.834;2023-04-07T07:48:12;15.50;50.70
75824;DHT22;64457;51.976;9.834;2023-04-07T07:50:40;15.50;50.30
75824;DHT22;64457;51.976;9.834;2023-04-07T07:53:09;15.50;50.40
75824;DHT22;64457;51.976;9.834;2023-04-07T07:55:37;16.10;50.40
75824;DHT22;64457;51.976;9.834;2023-04-07T07:58:05;16.20;49.00
75824;DHT22;64457;51.976;9.834;2023-04-07T08:00:35;16.60;49.10
75824;DHT22;64457;51.976;9.834;2023-04-07T08:03:03;16.30;47.30
75824;DHT22;64457;51.976;9.834;2023-04-07T08:05:30;16.10;50.10
75824;DHT22;64457;51.976;9.834;2023-04-07T08:07:58;16.00;49.70
75824;DHT22;64457;51.976;9.834;2023-04-07T08:10:27;17.50;51.50
75824;DHT22;64457;51.976;9.834;2023-04-07T08:12:56;19.90;48.70
75824;DHT22;64457;51.976;9.834;2023-04-07T08:15:46;21.30;44.50
75824;DHT22;64457;51.976;9.834;2023-04-07T08:18:14;22.30;42.90
75824;DHT22;64457;51.976;9.834;2023-04-07T08:20:42;22.00;43.70
75824;DHT22;64457;51.976;9.834;2023-04-07T08:23:10;21.60;45.40
75824;DHT22;64457;51.976;9.834;2023-04-07T08:25:47;21.10;45.00
75824;DHT22;64457;51.976;9.834;2023-04-07T08:28:15;21.60;45.50
75824;DHT22;64457;51.976;9.834;2023-04-07T08:30:46;21.40;43.60
75824;DHT22;64457;51.976;9.834;2023-04-07T08:33:14;22.70;43.50
75824;DHT22;64457;51.976;9.834;2023-04-07T08:35:42;23.40;43.10
75824;DHT22;64457;51.976;9.834;2023-04-07T08:38:09;23.50;42.60
75824;DHT22;64457;51.976;9.834;2023-04-07T08:40:37;23.50;40.40
75824;DHT22;64457;51.976;9.834;2023-04-07T08:43:08;22.20;42.20
75824;DHT22;64457;51.976;9.834;2023-04-07T08:45:39;22.80;42.60
75824;DHT22;64457;51.976;9.834;2023-04-07T08:48:16;23.90;43.00
75824;DHT22;64457;51.976;9.834;2023-04-07T08:50:45;24.40;42.00
75824;DHT22;64457;51.976;9.834;2023-04-07T08:53:18;25.60;41.10
75824;DHT22;64457;51.976;9.834;2023-04-07T08:55:49;26.70;40.10
75824;DHT22;64457;51.976;9.834;2023-04-07T08:58:18;27.30;36.50
75824;DHT22;64457;51.976;9.834;2023-04-07T09:00:46;26.60;38.30
75824;DHT22;64457;51.976;9.834;2023-04-07T09:03:17;25.80;38.50
75824;DHT22;64457;51.976;9.834;2023-04-07T09:05:44;25.10;38.60
75824;DHT22;64457;51.976;9.834;2023-04-07T09:08:13;24.40;39.60
75824;DHT22;64457;51.976;9.834;2023-04-07T09:10:40;24.50;39.30
75824;DHT22;64457;51.976;9.834;2023-04-07T09:13:08;24.70;40.10
75824;DHT22;64457;51.976;9.834;2023-04-07T09:15:36;25.30;38.00
75824;DHT22;64457;51.976;9.834;2023-04-07T09:18:06;25.70;36.90
75824;DHT22;64457;51.976;9.834;2023-04-07T09:21:06;26.30;36.00
75824;DHT22;64457;51.976;9.834;2023-04-07T09:23:37;23.30;34.00
75824;DHT22;64457;51.976;9.834;2023-04-07T09:26:20;21.90;38.00
75824;DHT22;64457;51.976;9.834;2023-04-07T09:28:52;21.60;38.30
75824;DHT22;64457;51.976;9.834;2023-04-07T09:31:23;22.50;38.50
75824;DHT22;64457;51.976;9.834;2023-04-07T09:34:02;22.20;39.50
75824;DHT22;64457;51.976;9.834;2023-04-07T09:36:40;22.20;37.20
75824;DHT22;64457;51.976;9.834;2023-04-07T09:39:09;23.30;41.60
75824;DHT22;64457;51.976;9.834;2023-04-07T09:41:37;25.40;39.30
75824;DHT22;64457;51.976;9.834;2023-04-07T09:44:04;25.30;36.40
75824;DHT22;64457;51.976;9.834;2023-04-07T09:46:32;24.40;35.00
75824;DHT22;64457;51.976;9.834;2023-04-07T09:49:01;24.70;36.90
75824;DHT22;64457;51.976;9.834;2023-04-07T09:51:31;25.60;37.50
75824;DHT22;64457;51.976;9.834;2023-04-07T09:54:03;25.80;36.30
75824;DHT22;64457;51.976;9.834;2023-04-07T09:56:32;26.60;34.30
75824;DHT22;64457;51.976;9.834;2023-04-07T09:59:00;25.00;35.40
75824;DHT22;64457;51.976;9.834;2023-04-07T10:01:28;24.20;38.00
75824;DHT22;64457;51.976;9.834;2023-04-07T10:03:56;24.20;38.70
75824;DHT22;64457;51.976;9.834;2023-04-07T10:06:25;24.50;38.90
75824;DHT22;64457;51.976;9.834;2023-04-07T10:08:57;24.90;39.50
75824;DHT22;64457;51.976;9.834;2023-04-07T10:11:28;25.90;37.90
75824;DHT22;64457;51.976;9.834;2023-04-07T10:13:57;26.80;38.40
75824;DHT22;64457;51.976;9.834;2023-04-07T10:16:28;27.90;36.90
75824;DHT22;64457;51.976;9.834;2023-04-07T10:19:09;28.30;36.60
75824;DHT22;64457;51.976;9.834;2023-04-07T10:21:40;26.70;35.20
75824;DHT22;64457;51.976;9.834;2023-04-07T10:24:18;25.60;34.20
75824;DHT22;64457;51.976;9.834;2023-04-07T10:26:58;25.50;34.30
75824;DHT22;64457;51.976;9.834;2023-04-07T10:29:33;23.70;36.20
75824;DHT22;64457;51.976;9.834;2023-04-07T10:32:02;23.50;39.90
75824;DHT22;64457;51.976;9.834;2023-04-07T10:34:56;24.10;39.90
75824;DHT22;64457;51.976;9.834;2023-04-07T10:37:27;25.20;40.70
75824;DHT22;64457;51.976;9.834;2023-04-07T10:40:26;25.70;37.60
75824;DHT22;64457;51.976;9.834;2023-04-07T10:42:57;26.10;40.00
75824;DHT22;64457;51.976;9.834;2023-04-07T10:45:51;26.40;36.40
75824;DHT22;64457;51.976;9.834;2023-04-07T10:48:26;25.80;37.10
75824;DHT22;64457;51.976;9.834;2023-04-07T10:51:14;25.30;38.10
75824;DHT22;64457;51.976;9.834;2023-04-07T10:54:18;25.00;36.70
75824;DHT22;64457;51.976;9.834;2023-04-07T10:57:09;24.30;38.80
75824;DHT22;64457;51.976;9.834;2023-04-07T11:00:14;23.20;35.20
75824;DHT22;64457;51.976;9.834;2023-04-07T11:02:44;23.00;40.80
75824;DHT22;64457;51.976;9.834;2023-04-07T11:05:21;23.30;38.70
75824;DHT22;64457;51.976;9.834;2023-04-07T11:07:51;23.30;37.80
75824;DHT22;64457;51.976;9.834;2023-04-07T11:10:23;23.30;37.90
75824;DHT22;64457;51.976;9.834;2023-04-07T11:13:05;22.60;36.90
75824;DHT22;64457;51.976;9.834;2023-04-07T11:15:36;21.60;37.90
75824;DHT22;64457;51.976;9.834;2023-04-07T11:18:09;20.50;40.00
75824;DHT22;64457;51.976;9.834;2023-04-07T11:20:44;20.00;41.00
75824;DHT22;64457;51.976;9.834;2023-04-07T11:23:18;20.60;41.80
75824;DHT22;64457;51.976;9.834;2023-04-07T11:25:58;20.50;38.70
75824;DHT22;64457;51.976;9.834;2023-04-07T11:28:27;20.90;38.30
75824;DHT22;64457;51.976;9.834;2023-04-07T11:31:01;21.30;38.90
75824;DHT22;64457;51.976;9.834;2023-04-07T11:33:35;21.40;39.70
75824;DHT22;64457;51.976;9.834;2023-04-07T11:36:12;21.30;39.20
75824;DHT22;64457;51.976;9.834;2023-04-07T11:38:40;21.40;38.30
75824;DHT22;64457;51.976;9.834;2023-04-07T11:41:12;21.10;39.70
75824;DHT22;64457;51.976;9.834;2023-04-07T11:43:46;21.10;40.70
75824;DHT22;64457;51.976;9.834;2023-04-07T11:46:16;21.20;40.00
75824;DHT22;64457;51.976;9.834;2023-04-07T11:48:45;21.60;39.90
75824;DHT22;64457;51.976;9.834;2023-04-07T11:51:19;21.70;41.40
75824;DHT22;64457;51.976;9.834;2023-04-07T11:53:53;21.90;39.10
75824;DHT22;64457;51.976;9.834;2023-04-07T11:56:23;21.90;38.40
75824;DHT22;64457;51.976;9.834;2023-04-07T11:58:54;21.40;41.50
75824;DHT22;64457;51.976;9.834;2023-04-07T12:01:38;21.20;38.80
75824;DHT22;64457;51.976;9.834;2023-04-07T12:04:12;20.60;38.30
75824;DHT22;64457;51.976;9.834;2023-04-07T12:06:46;20.50;40.80
75824;DHT22;64457;51.976;9.834;2023-04-07T12:09:28;19.90;39.80
75824;DHT22;64457;51.976;9.834;2023-04-07T12:11:58;19.60;40.60
75824;DHT22;64457;51.976;9.834;2023-04-07T12:14:27;19.80;40.40
75824;DHT22;64457;51.976;9.834;2023-04-07T12:17:06;20.40;41.30
75824;DHT22;64457;51.976;9.834;2023-04-07T12:19:47;20.80;40.30
75824;DHT22;64457;51.976;9.834;2023-04-07T12:22:17;20.70;40.00
75824;DHT22;64457;51.976;9.834;2023-04-07T12:24:45;20.50;39.90
75824;DHT22;64457;51.976;9.834;2023-04-07T12:27:12;20.60;40.00
75824;DHT22;64457;51.976;9.834;2023-04-07T12:29:41;20.60;38.00
75824;DHT22;64457;51.976;9.834;2023-04-07T12:32:10;19.60;41.40
75824;DHT22;64457;51.976;9.834;2023-04-07T12:34:40;19.70;42.90
75824;DHT22;64457;51.976;9.834;2023-04-07T12:37:08;19.80;40.90
75824;DHT22;64457;51.976;9.834;2023-04-07T12:39:36;20.20;43.30
75824;DHT22;64457;51.976;9.834;2023-04-07T12:42:03;20.60;42.30
75824;DHT22;64457;51.976;9.834;2023-04-07T12:44:33;20.90;41.90
75824;DHT22;64457;51.976;9.834;2023-04-07T12:47:01;20.70;41.00
75824;DHT22;64457;51.976;9.834;2023-04-07T12:49:30;20.20;41.80
75824;DHT22;64457;51.976;9.834;2023-04-07T12:51:58;19.70;43.00
75824;DHT22;64457;51.976;9.834;2023-04-07T12:54:26;19.60;42.50
75824;DHT22;64457;51.976;9.834;2023-04-07T12:56:57;19.70;43.80
75824;DHT22;64457;51.976;9.834;2023-04-07T12:59:25;19.70;42.20
75824;DHT22;64457;51.976;9.834;2023-04-07T13:01:53;19.50;43.20
75824;DHT22;64457;51.976;9.834;2023-04-07T13:04:20;19.50;42.60
75824;DHT22;64457;51.976;9.834;2023-04-07T13:06:51;19.60;43.60
75824;DHT22;64457;51.976;9.834;2023-04-07T13:09:20;20.00;43.00
75824;DHT22;64457;51.976;9.834;2023-04-07T13:11:48;20.10;42.00
75824;DHT22;64457;51.976;9.834;2023-04-07T13:14:18;20.30;43.00
75824;DHT22;64457;51.976;9.834;2023-04-07T13:16:53;20.10;42.80
75824;DHT22;64457;51.976;9.834;2023-04-07T13:19:21;19.60;43.50
75824;DHT22;64457;51.976;9.834;2023-04-07T13:21:51;19.70;43.30
75824;DHT22;64457;51.976;9.834;2023-04-07T13:24:24;19.20;42.60
75824;DHT22;64457;51.976;9.834;2023-04-07T13:26:52;19.20;43.20
75824;DHT22;64457;51.976;9.834;2023-04-07T13:29:22;19.40;44.60
75824;DHT22;64457;51.976;9.834;2023-04-07T13:31:50;19.40;41.30
75824;DHT22;64457;51.976;9.834;2023-04-07T13:34:20;19.40;42.10
75824;DHT22;64457;51.976;9.834;2023-04-07T13:36:51;19.80;42.40
75824;DHT22;64457;51.976;9.834;2023-04-07T13:39:20;20.00;41.70
75824;DHT22;64457;51.976;9.834;2023-04-07T13:41:58;20.30;40.50
75824;DHT22;64457;51.976;9.834;2023-04-07T13:44:38;20.30;40.50
75824;DHT22;64457;51.976;9.834;2023-04-07T13:47:08;20.40;40.90
75824;DHT22;64457;51.976;9.834;2023-04-07T13:49:39;19.90;38.20
75824;DHT22;64457;51.976;9.834;2023-04-07T13:52:17;19.60;41.20
75824;DHT22;64457;51.976;9.834;2023-04-07T13:54:49;19.60;41.80
75824;DHT22;64457;51.976;9.834;2023-04-07T13:57:19;19.90;41.60
75824;DHT22;64457;51.976;9.834;2023-04-07T13:59:48;20.10;42.10
75824;DHT22;64457;51.976;9.834;2023-04-07T14:02:33;20.00;39.60
75824;DHT22;64457;51.976;9.834;2023-04-07T14:05:06;20.20;41.40
75824;DHT22;64457;51.976;9.834;2023-04-07T14:07:36;20.10;43.00
75824;DHT22;64457;51.976;9.834;2023-04-07T14:10:05;19.50;43.00
75824;DHT22;64457;51.976;9.834;2023-04-07T14:12:38;19.70;43.60
75824;DHT22;64457;51.976;9.834;2023-04-07T14:15:07;19.90;41.50
75824;DHT22;64457;51.976;9.834;2023-04-07T14:17:40;19.50;41.70
75824;DHT22;64457;51.976;9.834;2023-04-07T14:20:11;19.90;43.20
75824;DHT22;64457;51.976;9.834;2023-04-07T14:22:42;19.70;43.60
75824;DHT22;64457;51.976;9.834;2023-04-07T14:25:13;20.00;43.50
75824;DHT22;64457;51.976;9.834;2023-04-07T14:27:41;19.80;42.80
75824;DHT22;64457;51.976;9.834;2023-04-07T14:30:10;20.10;44.40
75824;DHT22;64457;51.976;9.834;2023-04-07T14:32:38;20.40;43.10
75824;DHT22;64457;51.976;9.834;2023-04-07T14:35:07;19.70;40.50
75824;DHT22;64457;51.976;9.834;2023-04-07T14:37:37;18.80;43.20
75824;DHT22;64457;51.976;9.834;2023-04-07T14:40:09;18.60;42.90
75824;DHT22;64457;51.976;9.834;2023-04-07T14:42:38;17.90;43.10
75824;DHT22;64457;51.976;9.834;2023-04-07T14:45:07;17.90;44.40
75824;DHT22;64457;51.976;9.834;2023-04-07T14:47:35;18.10;44.90
75824;DHT22;64457;51.976;9.834;2023-04-07T14:50:04;18.50;44.90
75824;DHT22;64457;51.976;9.834;2023-04-07T14:52:33;18.90;44.60
75824;DHT22;64457;51.976;9.834;2023-04-07T14:55:00;19.00;43.10
75824;DHT22;64457;51.976;9.834;2023-04-07T14:57:30;19.10;43.20
75824;DHT22;64457;51.976;9.834;2023-04-07T14:59:59;19.10;43.00
75824;DHT22;64457;51.976;9.834;2023-04-07T15:02:27;19.40;43.00
75824;DHT22;64457;51.976;9.834;2023-04-07T15:04:57;18.80;40.40
75824;DHT22;64457;51.976;9.834;2023-04-07T15:07:27;18.40;43.10
75824;DHT22;64457;51.976;9.834;2023-04-07T15:09:59;18.70;43.40
75824;DHT22;64457;51.976;9.834;2023-04-07T15:12:58;18.60;41.80
75824;DHT22;64457;51.976;9.834;2023-04-07T15:15:54;18.30;42.10
75824;DHT22;64457;51.976;9.834;2023-04-07T15:18:47;18.40;43.30
75824;DHT22;64457;51.976;9.834;2023-04-07T15:21:41;18.40;43.60
75824;DHT22;64457;51.976;9.834;2023-04-07T15:24:35;18.50;43.20
75824;DHT22;64457;51.976;9.834;2023-04-07T15:27:30;18.20;42.60
75824;DHT22;64457;51.976;9.834;2023-04-07T15:30:26;18.30;44.40
75824;DHT22;64457;51.976;9.834;2023-04-07T15:33:02;18.70;44.10
75824;DHT22;64457;51.976;9.834;2023-04-07T15:35:30;19.10;43.80
75824;DHT22;64457;51.976;9.834;2023-04-07T15:37:59;19.10;43.40
75824;DHT22;64457;51.976;9.834;2023-04-07T15:40:56;19.30;42.30
75824;DHT22;64457;51.976;9.834;2023-04-07T15:43:34;19.30;42.80
75824;DHT22;64457;51.976;9.834;2023-04-07T15:46:06;19.30;42.70
75824;DHT22;64457;51.976;9.834;2023-04-07T15:48:37;18.60;41.70
75824;DHT22;64457;51.976;9.834;2023-04-07T15:51:06;18.30;43.80
75824;DHT22;64457;51.976;9.834;2023-04-07T15:53:34;18.20;44.20
75824;DHT22;64457;51.976;9.834;2023-04-07T15:56:02;18.10;43.90
75824;DHT22;64457;51.976;9.834;2023-04-07T15:58:31;18.20;43.30
75824;DHT22;64457;51.976;9.834;2023-04-07T16:00:59;17.70;42.90
75824;DHT22;64457;51.976;9.834;2023-04-07T16:03:28;17.70;43.50